sensor_id;sensor_type;location;lat;lon;timestamp;temperature;humidity
15937;DHT22;9163;48.818;8.976;2023-07-28T00:01:17;16.30;99.90
15937;DHT22;9163;48.818;8.976;2023-07-28T00:03:44;16.30;99.90
15937;DHT22;9163;48.818;8.976;2023-07-28T00:06:12;16.30;99.90
15937;DHT22;9163;48.818;8.976;2023-07-28T00:08:40;16.30;99.90
15937;DHT22;9163;48.818;8.976;2023-07-28T00:11:09;16.30;99.90
15937;DHT22;9163;48.818;8.976;2023-07-28T00:13:38;16.30;99.90
15937;DHT22;9163;48.818;8.976;2023-07-28T00:16:06;16.20;99.90
15937;DHT22;9163;48.818;8.976;2023-07-28T00:18:33;16.20;99.90
15937;DHT22;9163;48.818;8.976;2023-07-28T00:21:01;16.20;99.90
15937;DHT22;9163;48.818;8.976;2023-07-28T00:23:28;16.10;99.90
15937;DHT22;9163;48.818;8.976;2023-07-28T00:25:55;16.10;99.90
15937;DHT22;9163;48.818;8.976;2023-07-28T00:28:22;16.10;99.90
15937;DHT22;9163;48.818;8.976;2023-07-28T00:30:50;16.10;99.90
15937;DHT22;9163;48.818;8.976;2023-07-28T00:33:19;16.00;99.90
15937;DHT22;9163;48.818;8.976;2023-07-28T00:35:46;16.00;99.90
15937;DHT22;9163;48.818;8.976;2023-07-28T00:38:13;16.00;99.90
15937;DHT22;9163;48.818;8.976;2023-07-28T00:40:41;15.90;99.90
15937;DHT22;9163;48.818;8.976;2023-07-28T00:43:07;15.90;99.90
15937;DHT22;9163;48.818;8.976;2023-07-28T00:45:35;15.90;99.90
15937;DHT22;9163;48.818;8.976;2023-07-28T00:48:02;15.90;99.90
15937;DHT22;9163;48.818;8.976;2023-07-28T00:50:33;15.80;99.90
15937;DHT22;9163;48.818;8.976;2023-07-28T00:53:00;15.80;99.90
15937;DHT22;9163;48.818;8.976;2023-07-28T00:55:28;15.70;99.90
15937;DHT22;9163;48.818;8.976;2023-07-28T00:57:55;15.70;99.90
15937;DHT22;9163;48.818;8.976;2023-07-28T01:00:22;15.70;99.90
15937;DHT22;9163;48.818;8.976;2023-07-28T01:02:49;15.70;99.90
15937;DHT22;9163;48.818;8.976;2023-07-28T01:05:17;15.70;99.90
15937;DHT22;9163;48.818;8.976;2023-07-28T01:07:51;15.60;99.90
15937;DHT22;9163;48.818;8.976;2023-07-28T01:10:24;15.60;99.90
15937;DHT22;9163;48.818;8.976;2023-07-28T01:12:53;15.60;99.90
15937;DHT22;9163;48.818;8.976;2023-07-28T01:15:20;15.60;99.90
15937;DHT22;9163;48.818;8.976;2023-07-28T01:17:47;15.60;99.90
15937;DHT22;9163;48.818;8.976;2023-07-28T01:20:16;15.50;99.90
15937;DHT22;9163;48.818;8.976;2023-07-28T01:22:55;15.60;99.90
15937;DHT22;9163;48.818;8.976;2023-07-28T01:25:39;15.50;99.90
15937;DHT22;9163;48.818;8.976;2023-07-28T01:28:13;15.50;99.90
15937;DHT22;9163;48.818;8.976;2023-07-28T01:30:40;15.60;99.90
15937;DHT22;9163;48.818;8.976;2023-07-28T01:33:08;15.50;99.90
15937;DHT22;9163;48.818;8.976;2023-07-28T01:35:36;15.60;99.90
15937;DHT22;9163;48.818;8.976;2023-07-28T01:38:04;15.50;99.90
15937;DHT22;9163;48.818;8.976;2023-07-28T01:40:31;15.50;99.90
15937;DHT22;9163;48.818;8.976;2023-07-28T01:42:58;15.50;99.90
15937;DHT22;9163;48.818;8.976;2023-07-28T01:45:27;15.40;99.90
15937;DHT22;9163;48.818;8.976;2023-07-28T01:47:54;15.40;99.90
15937;DHT22;9163;48.818;8.976;2023-07-28T01:50:22;15.40;99.90
15937;DHT22;9163;48.818;8.976;2023-07-28T01:52:49;15.40;99.90
15937;DHT22;9163;48.818;8.976;2023-07-28T01:55:16;15.40;99.90
15937;DHT22;9163;48.818;8.976;2023-07-28T01:57:53;15.40;99.90
15937;DHT22;9163;48.818;8.976;2023-07-28T02:00:20;15.40;99.90
15937;DHT22;9163;48.818;8.976;2023-07-28T02:02:49;15.40;99.90
15937;DHT22;9163;48.818;8.976;2023-07-28T02:05:17;15.40;99.90
15937;DHT22;9163;48.818;8.976;2023-07-28T02:07:44;15.40;99.90
15937;DHT22;9163;48.818;8.976;2023-07-28T02:10:12;15.40;99.90
15937;DHT22;9163;48.818;8.976;2023-07-28T02:12:40;15.40;99.90
15937;DHT22;9163;48.818;8.976;2023-07-28T02:15:08;15.40;99.90
15937;DHT22;9163;48.818;8.976;2023-07-28T02:17:35;15.40;99.90
15937;DHT22;9163;48.818;8.976;2023-07-28T02:20:05;15.40;99.90
15937;DHT22;9163;48.818;8.976;2023-07-28T02:22:32;15.50;99.90
15937;DHT22;9163;48.818;8.976;2023-07-28T02:25:00;15.50;99.90
15937;DHT22;9163;48.818;8.976;2023-07-28T02:27:28;15.50;99.90
15937;DHT22;9163;48.818;8.976;2023-07-28T02:29:55;15.40;99.90
15937;DHT22;9163;48.818;8.976;2023-07-28T02:32:22;15.50;99.90
15937;DHT22;9163;48.818;8.976;2023-07-28T02:34:50;15.60;99.90
15937;DHT22;9163;48.818;8.976;2023-07-28T02:37:18;15.60;99.90
15937;DHT22;9163;48.818;8.976;2023-07-28T02:39:46;15.50;99.90
15937;DHT22;9163;48.818;8.976;2023-07-28T02:42:13;15.50;99.90
15937;DHT22;9163;48.818;8.976;2023-07-28T02:44:40;15.50;99.90
15937;DHT22;9163;48.818;8.976;2023-07-28T02:47:07;15.40;99.90
15937;DHT22;9163;48.818;8.976;2023-07-28T02:49:35;15.30;99.90
15937;DHT22;9163;48.818;8.976;2023-07-28T02:52:02;15.30;99.90
15937;DHT22;9163;48.818;8.976;2023-07-28T02:54:31;15.30;99.90
15937;DHT22;9163;48.818;8.976;2023-07-28T02:56:58;15.30;99.90
15937;DHT22;9163;48.818;8.976;2023-07-28T02:59:25;15.30;99.90
15937;DHT22;9163;48.818;8.976;2023-07-28T03:01:53;15.40;99.90
15937;DHT22;9163;48.818;8.976;2023-07-28T03:04:20;15.30;99.90
15937;DHT22;9163;48.818;8.976;2023-07-28T03:06:47;15.40;99.90
15937;DHT22;9163;48.818;8.976;2023-07-28T03:09:14;15.40;99.90
15937;DHT22;9163;48.818;8.976;2023-07-28T03:11:43;15.40;99.90
15937;DHT22;9163;48.818;8.976;2023-07-28T03:14:10;15.40;99.90
15937;DHT22;9163;48.818;8.976;2023-07-28T03:16:39;15.40;99.90
15937;DHT22;9163;48.818;8.976;2023-07-28T03:19:07;15.40;99.90
15937;DHT22;9163;48.818;8.976;2023-07-28T03:21:34;15.50;99.90
15937;DHT22;9163;48.818;8.976;2023-07-28T03:24:01;15.50;99.90
15937;DHT22;9163;48.818;8.976;2023-07-28T03:26:28;15.60;99.90
15937;DHT22;9163;48.818;8.976;2023-07-28T03:28:57;15.70;99.90
15937;DHT22;9163;48.818;8.976;2023-07-28T03:31:24;15.70;99.90
15937;DHT22;9163;48.818;8.976;2023-07-28T03:33:52;15.70;99.90
15937;DHT22;9163;48.818;8.976;2023-07-28T03:36:19;15.80;99.90
15937;DHT22;9163;48.818;8.976;2023-07-28T03:38:46;15.90;99.90
15937;DHT22;9163;48.818;8.976;2023-07-28T03:41:13;15.90;99.90
15937;DHT22;9163;48.818;8.976;2023-07-28T03:43:41;16.00;99.90
15937;DHT22;9163;48.818;8.976;2023-07-28T03:46:10;16.10;99.90
15937;DHT22;9163;48.818;8.976;2023-07-28T03:48:37;16.20;99.90
15937;DHT22;9163;48.818;8.976;2023-07-28T03:51:04;16.30;99.90
15937;DHT22;9163;48.818;8.976;2023-07-28T03:53:32;16.40;99.90
15937;DHT22;9163;48.818;8.976;2023-07-28T03:56:01;16.50;99.90
15937;DHT22;9163;48.818;8.976;2023-07-28T03:58:28;16.60;99.90
15937;DHT22;9163;48.818;8.976;2023-07-28T04:00:55;16.60;99.90
15937;DHT22;9163;48.818;8.976;2023-07-28T04:03:24;16.60;99.90
15937;DHT22;9163;48.818;8.976;2023-07-28T04:05:51;16.60;99.90
15937;DHT22;9163;48.818;8.976;2023-07-28T04:08:19;16.70;99.90
15937;DHT22;9163;48.818;8.976;2023-07-28T04:10:46;16.70;99.90
15937;DHT22;9163;48.818;8.976;2023-07-28T04:13:13;16.70;99.90
15937;DHT22;9163;48.818;8.976;2023-07-28T04:15:40;16.70;99.90
15937;DHT22;9163;48.818;8.976;2023-07-28T04:18:07;16.70;99.90
15937;DHT22;9163;48.818;8.976;2023-07-28T04:20:36;16.70;99.90
15937;DHT22;9163;48.818;8.976;2023-07-28T04:23:03;16.70;99.90
15937;DHT22;9163;48.818;8.976;2023-07-28T04:25:30;16.70;99.90
15937;DHT22;9163;48.818;8.976;2023-07-28T04:27:58;16.70;99.90
15937;DHT22;9163;48.818;8.976;2023-07-28T04:30:25;16.70;99.90
15937;DHT22;9163;48.818;8.976;2023-07-28T04:32:52;16.70;99.90
15937;DHT22;9163;48.818;8.976;2023-07-28T04:35:20;16.70;99.90
15937;DHT22;9163;48.818;8.976;2023-07-28T04:37:49;16.70;99.90
15937;DHT22;9163;48.818;8.976;2023-07-28T04:40:16;16.70;99.90
15937;DHT22;9163;48.818;8.976;2023-07-28T04:42:43;16.70;99.90
15937;DHT22;9163;48.818;8.976;2023-07-28T04:45:11;16.70;99.90
15937;DHT22;9163;48.818;8.976;2023-07-28T04:47:38;16.60;99.90
15937;DHT22;9163;48.818;8.976;2023-07-28T04:50:05;16.60;99.90
15937;DHT22;9163;48.818;8.976;2023-07-28T04:52:33;16.60;99.90
15937;DHT22;9163;48.818;8.976;2023-07-28T04:55:01;16.60;99.90
15937;DHT22;9163;48.818;8.976;2023-07-28T04:57:29;16.50;99.90
15937;DHT22;9163;48.818;8.976;2023-07-28T04:59:56;16.50;99.90
15937;DHT22;9163;48.818;8.976;2023-07-28T05:02:23;16.50;99.90
15937;DHT22;9163;48.818;8.976;2023-07-28T05:04:50;16.40;99.90
15937;DHT22;9163;48.818;8.976;2023-07-28T05:07:18;16.40;99.90
15937;DHT22;9163;48.818;8.976;2023-07-28T05:09:46;16.40;99.90
15937;DHT22;9163;48.818;8.976;2023-07-28T05:12:14;16.50;99.90
15937;DHT22;9163;48.818;8.976;2023-07-28T05:14:42;16.50;99.90
15937;DHT22;9163;48.818;8.976;2023-07-28T05:17:09;16.60;99.90
15937;DHT22;9163;48.818;8.976;2023-07-28T05:19:37;16.50;99.90
15937;DHT22;9163;48.818;8.976;2023-07-28T05:22:04;16.50;99.90
15937;DHT22;9163;48.818;8.976;2023-07-28T05:24:33;16.60;99.90
15937;DHT22;9163;48.818;8.976;2023-07-28T05:27:00;16.60;99.90
15937;DHT22;9163;48.818;8.976;2023-07-28T05:29:28;16.60;99.90
15937;DHT22;9163;48.818;8.976;2023-07-28T05:31:58;16.60;99.90
15937;DHT22;9163;48.818;8.976;2023-07-28T05:34:25;16.60;99.90
15937;DHT22;9163;48.818;8.976;2023-07-28T05:36:52;16.60;99.90
15937;DHT22;9163;48.818;8.976;2023-07-28T05:39:20;16.60;99.90
15937;DHT22;9163;48.818;8.976;2023-07-28T05:41:47;16.60;99.90
15937;DHT22;9163;48.818;8.976;2023-07-28T05:44:14;16.60;99.90
15937;DHT22;9163;48.818;8.976;2023-07-28T05:46:43;16.60;99.90
15937;DHT22;9163;48.818;8.976;2023-07-28T05:49:11;16.70;99.90
15937;DHT22;9163;48.818;8.976;2023-07-28T05:51:38;16.60;99.90
15937;DHT22;9163;48.818;8.976;2023-07-28T05:54:06;16.60;99.90
15937;DHT22;9163;48.818;8.976;2023-07-28T05:56:33;16.70;99.90
15937;DHT22;9163;48.818;8.976;2023-07-28T05:59:00;16.70;99.90
15937;DHT22;9163;48.818;8.976;2023-07-28T06:01:27;16.70;99.90
15937;DHT22;9163;48.818;8.976;2023-07-28T06:03:56;16.70;99.90
15937;DHT22;9163;48.818;8.976;2023-07-28T06:06:25;16.70;99.90
15937;DHT22;9163;48.818;8.976;2023-07-28T06:08:53;16.70;99.90
15937;DHT22;9163;48.818;8.976;2023-07-28T06:11:20;16.70;99.90
15937;DHT22;9163;48.818;8.976;2023-07-28T06:13:48;16.70;99.90
15937;DHT22;9163;48.818;8.976;2023-07-28T06:16:15;16.70;99.90
15937;DHT22;9163;48.818;8.976;2023-07-28T06:18:42;16.70;99.90
15937;DHT22;9163;48.818;8.976;2023-07-28T06:21:11;16.60;99.90
15937;DHT22;9163;48.818;8.976;2023-07-28T06:23:38;16.70;99.90
15937;DHT22;9163;48.818;8.976;2023-07-28T06:26:06;16.70;99.90
15937;DHT22;9163;48.818;8.976;2023-07-28T06:28:34;16.80;99.90
15937;DHT22;9163;48.818;8.976;2023-07-28T06:31:01;16.70;99.90
15937;DHT22;9163;48.818;8.976;2023-07-28T06:33:28;16.80;99.90
15937;DHT22;9163;48.818;8.976;2023-07-28T06:35:56;16.90;99.90
15937;DHT22;9163;48.818;8.976;2023-07-28T06:38:24;16.90;99.90
15937;DHT22;9163;48.818;8.976;2023-07-28T06:40:52;17.00;99.90
15937;DHT22;9163;48.818;8.976;2023-07-28T06:43:19;17.10;99.90
15937;DHT22;9163;48.818;8.976;2023-07-28T06:45:46;17.20;99.90
15937;DHT22;9163;48.818;8.976;2023-07-28T06:48:14;17.10;99.90
15937;DHT22;9163;48.818;8.976;2023-07-28T06:50:42;17.10;99.90
15937;DHT22;9163;48.818;8.976;2023-07-28T06:53:10;17.20;99.90
15937;DHT22;9163;48.818;8.976;2023-07-28T06:55:38;17.20;99.90
15937;DHT22;9163;48.818;8.976;2023-07-28T06:58:06;17.30;99.90
15937;DHT22;9163;48.818;8.976;2023-07-28T07:00:33;17.30;99.90
15937;DHT22;9163;48.818;8.976;2023-07-28T07:03:00;17.50;99.90
15937;DHT22;9163;48.818;8.976;2023-07-28T07:05:27;17.60;99.90
15937;DHT22;9163;48.818;8.976;2023-07-28T07:07:55;17.90;99.90
15937;DHT22;9163;48.818;8.976;2023-07-28T07:10:22;17.90;99.90
15937;DHT22;9163;48.818;8.976;2023-07-28T07:12:51;18.10;99.90
15937;DHT22;9163;48.818;8.976;2023-07-28T07:15:18;18.30;99.90
15937;DHT22;9163;48.818;8.976;2023-07-28T07:17:45;18.50;99.90
15937;DHT22;9163;48.818;8.976;2023-07-28T07:20:13;18.60;99.90
15937;DHT22;9163;48.818;8.976;2023-07-28T07:22:41;18.70;99.90
15937;DHT22;9163;48.818;8.976;2023-07-28T07:25:08;18.80;99.90
15937;DHT22;9163;48.818;8.976;2023-07-28T07:27:35;18.90;99.90
15937;DHT22;9163;48.818;8.976;2023-07-28T07:30:05;19.00;99.90
15937;DHT22;9163;48.818;8.976;2023-07-28T07:32:33;19.00;99.90
15937;DHT22;9163;48.818;8.976;2023-07-28T07:35:00;19.30;99.90
15937;DHT22;9163;48.818;8.976;2023-07-28T07:37:28;19.20;99.90
15937;DHT22;9163;48.818;8.976;2023-07-28T07:39:57;19.00;99.90
15937;DHT22;9163;48.818;8.976;2023-07-28T07:42:26;19.10;99.90
15937;DHT22;9163;48.818;8.976;2023-07-28T07:44:53;19.10;99.90
15937;DHT22;9163;48.818;8.976;2023-07-28T07:47:21;19.10;99.90
15937;DHT22;9163;48.818;8.976;2023-07-28T07:49:49;19.20;99.90
15937;DHT22;9163;48.818;8.976;2023-07-28T07:52:16;19.30;99.90
15937;DHT22;9163;48.818;8.976;2023-07-28T07:54:43;19.30;99.90
15937;DHT22;9163;48.818;8.976;2023-07-28T07:57:10;19.30;99.90
15937;DHT22;9163;48.818;8.976;2023-07-28T07:59:38;19.30;99.90
15937;DHT22;9163;48.818;8.976;2023-07-28T08:02:05;19.00;99.90
15937;DHT22;9163;48.818;8.976;2023-07-28T08:04:34;19.10;99.90
15937;DHT22;9163;48.818;8.976;2023-07-28T08:07:02;19.10;99.90
15937;DHT22;9163;48.818;8.976;2023-07-28T08:09:30;19.10;99.90
15937;DHT22;9163;48.818;8.976;2023-07-28T08:11:59;19.00;99.90
15937;DHT22;9163;48.818;8.976;2023-07-28T08:14:26;18.90;99.90
15937;DHT22;9163;48.818;8.976;2023-07-28T08:16:54;19.20;99.90
15937;DHT22;9163;48.818;8.976;2023-07-28T08:19:21;19.40;99.90
15937;DHT22;9163;48.818;8.976;2023-07-28T08:21:50;19.70;99.90
15937;DHT22;9163;48.818;8.976;2023-07-28T08:24:18;19.80;99.90
15937;DHT22;9163;48.818;8.976;2023-07-28T08:26:46;19.90;99.90
15937;DHT22;9163;48.818;8.976;2023-07-28T08:29:13;20.10;99.90
15937;DHT22;9163;48.818;8.976;2023-07-28T08:31:40;20.30;99.90
15937;DHT22;9163;48.818;8.976;2023-07-28T08:34:08;20.40;99.90
15937;DHT22;9163;48.818;8.976;2023-07-28T08:36:35;20.60;99.90
15937;DHT22;9163;48.818;8.976;2023-07-28T08:39:04;20.70;99.90
15937;DHT22;9163;48.818;8.976;2023-07-28T08:41:32;20.90;99.90
15937;DHT22;9163;48.818;8.976;2023-07-28T08:43:59;21.30;99.90
15937;DHT22;9163;48.818;8.976;2023-07-28T08:46:26;21.50;99.90
15937;DHT22;9163;48.818;8.976;2023-07-28T08:48:54;22.10;99.90
15937;DHT22;9163;48.818;8.976;2023-07-28T08:51:22;22.10;99.90
15937;DHT22;9163;48.818;8.976;2023-07-28T08:53:50;22.00;96.30
15937;DHT22;9163;48.818;8.976;2023-07-28T08:56:19;21.80;99.90
15937;DHT22;9163;48.818;8.976;2023-07-28T08:58:47;21.20;99.90
15937;DHT22;9163;48.818;8.976;2023-07-28T09:01:14;21.20;99.90
15937;DHT22;9163;48.818;8.976;2023-07-28T09:03:42;21.20;99.90
15937;DHT22;9163;48.818;8.976;2023-07-28T09:06:10;21.40;99.90
15937;DHT22;9163;48.818;8.976;2023-07-28T09:08:37;21.20;99.90
15937;DHT22;9163;48.818;8.976;2023-07-28T09:11:05;21.20;99.90
15937;DHT22;9163;48.818;8.976;2023-07-28T09:13:39;21.50;99.90
15937;DHT22;9163;48.818;8.976;2023-07-28T09:16:16;21.50;99.90
15937;DHT22;9163;48.818;8.976;2023-07-28T09:18:43;21.30;99.90
15937;DHT22;9163;48.818;8.976;2023-07-28T09:21:16;21.40;99.90
15937;DHT22;9163;48.818;8.976;2023-07-28T09:23:44;21.50;99.90
15937;DHT22;9163;48.818;8.976;2023-07-28T09:26:12;21.60;99.90
15937;DHT22;9163;48.818;8.976;2023-07-28T09:28:41;21.80;99.90
15937;DHT22;9163;48.818;8.976;2023-07-28T09:31:08;22.20;99.90
15937;DHT22;9163;48.818;8.976;2023-07-28T09:33:37;22.30;86.40
15937;DHT22;9163;48.818;8.976;2023-07-28T09:36:09;22.20;93.70
15937;DHT22;9163;48.818;8.976;2023-07-28T09:38:38;22.30;96.90
15937;DHT22;9163;48.818;8.976;2023-07-28T09:41:08;22.50;86.30
15937;DHT22;9163;48.818;8.976;2023-07-28T09:43:36;22.30;66.70
15937;DHT22;9163;48.818;8.976;2023-07-28T09:46:06;22.20;78.50
15937;DHT22;9163;48.818;8.976;2023-07-28T09:48:34;21.80;95.70
15937;DHT22;9163;48.818;8.976;2023-07-28T09:51:06;21.70;93.10
15937;DHT22;9163;48.818;8.976;2023-07-28T09:53:40;21.80;99.90
15937;DHT22;9163;48.818;8.976;2023-07-28T09:56:08;21.90;99.90
15937;DHT22;9163;48.818;8.976;2023-07-28T09:58:38;22.00;92.70
15937;DHT22;9163;48.818;8.976;2023-07-28T10:01:09;21.60;94.10
15937;DHT22;9163;48.818;8.976;2023-07-28T10:03:37;21.90;99.90
15937;DHT22;9163;48.818;8.976;2023-07-28T10:06:04;21.80;95.10
15937;DHT22;9163;48.818;8.976;2023-07-28T10:08:32;21.90;95.70
15937;DHT22;9163;48.818;8.976;2023-07-28T10:11:01;22.10;98.00
15937;DHT22;9163;48.818;8.976;2023-07-28T10:13:39;21.40;99.00
15937;DHT22;9163;48.818;8.976;2023-07-28T10:16:09;21.50;99.90
15937;DHT22;9163;48.818;8.976;2023-07-28T10:18:37;21.60;99.90
15937;DHT22;9163;48.818;8.976;2023-07-28T10:21:06;21.80;99.90
15937;DHT22;9163;48.818;8.976;2023-07-28T10:23:34;21.50;99.90
15937;DHT22;9163;48.818;8.976;2023-07-28T10:26:02;21.30;99.90
15937;DHT22;9163;48.818;8.976;2023-07-28T10:28:34;21.10;99.90
15937;DHT22;9163;48.818;8.976;2023-07-28T10:31:05;21.10;99.90
15937;DHT22;9163;48.818;8.976;2023-07-28T10:33:36;21.20;99.90
15937;DHT22;9163;48.818;8.976;2023-07-28T10:36:13;21.30;99.90
15937;DHT22;9163;48.818;8.976;2023-07-28T10:38:40;21.30;99.90
15937;DHT22;9163;48.818;8.976;2023-07-28T10:41:12;21.20;99.90
15937;DHT22;9163;48.818;8.976;2023-07-28T10:43:40;21.00;99.90
15937;DHT22;9163;48.818;8.976;2023-07-28T10:46:09;20.90;99.90
15937;DHT22;9163;48.818;8.976;2023-07-28T10:48:42;20.80;99.90
15937;DHT22;9163;48.818;8.976;2023-07-28T10:51:10;20.80;99.90
15937;DHT22;9163;48.818;8.976;2023-07-28T10:53:38;20.90;99.90
15937;DHT22;9163;48.818;8.976;2023-07-28T10:56:06;20.90;99.90
15937;DHT22;9163;48.818;8.976;2023-07-28T10:58:35;21.20;99.90
15937;DHT22;9163;48.818;8.976;2023-07-28T11:01:03;21.60;99.90
15937;DHT22;9163;48.818;8.976;2023-07-28T11:03:30;21.90;99.90
15937;DHT22;9163;48.818;8.976;2023-07-28T11:05:59;22.00;93.70
15937;DHT22;9163;48.818;8.976;2023-07-28T11:08:27;22.20;90.80
15937;DHT22;9163;48.818;8.976;2023-07-28T11:10:54;22.40;98.00
15937;DHT22;9163;48.818;8.976;2023-07-28T11:13:22;22.40;85.60
15937;DHT22;9163;48.818;8.976;2023-07-28T11:15:51;22.40;81.10
15937;DHT22;9163;48.818;8.976;2023-07-28T11:18:19;22.50;64.90
15937;DHT22;9163;48.818;8.976;2023-07-28T11:20:47;22.30;73.50
15937;DHT22;9163;48.818;8.976;2023-07-28T11:23:16;22.40;68.70
15937;DHT22;9163;48.818;8.976;2023-07-28T11:25:44;22.70;74.80
15937;DHT22;9163;48.818;8.976;2023-07-28T11:28:13;22.80;70.60
15937;DHT22;9163;48.818;8.976;2023-07-28T11:30:40;22.70;54.60
15937;DHT22;9163;48.818;8.976;2023-07-28T11:33:09;22.90;52.50
15937;DHT22;9163;48.818;8.976;2023-07-28T11:35:38;22.80;67.30
15937;DHT22;9163;48.818;8.976;2023-07-28T11:38:07;23.00;47.00
15937;DHT22;9163;48.818;8.976;2023-07-28T11:40:37;22.90;44.40
15937;DHT22;9163;48.818;8.976;2023-07-28T11:43:04;23.00;43.30
15937;DHT22;9163;48.818;8.976;2023-07-28T11:45:32;22.90;43.20
15937;DHT22;9163;48.818;8.976;2023-07-28T11:48:01;23.00;52.20
15937;DHT22;9163;48.818;8.976;2023-07-28T11:50:30;22.70;62.00
15937;DHT22;9163;48.818;8.976;2023-07-28T11:53:01;22.70;97.20
15937;DHT22;9163;48.818;8.976;2023-07-28T11:55:29;22.50;99.90
15937;DHT22;9163;48.818;8.976;2023-07-28T11:57:58;22.20;99.90
15937;DHT22;9163;48.818;8.976;2023-07-28T12:00:31;22.20;99.90
15937;DHT22;9163;48.818;8.976;2023-07-28T12:03:06;22.00;99.90
15937;DHT22;9163;48.818;8.976;2023-07-28T12:05:36;21.90;99.90
15937;DHT22;9163;48.818;8.976;2023-07-28T12:08:03;21.90;99.90
15937;DHT22;9163;48.818;8.976;2023-07-28T12:10:31;21.90;99.90
15937;DHT22;9163;48.818;8.976;2023-07-28T12:13:05;22.10;99.90
15937;DHT22;9163;48.818;8.976;2023-07-28T12:15:33;22.20;99.90
15937;DHT22;9163;48.818;8.976;2023-07-28T12:18:09;21.90;99.90
15937;DHT22;9163;48.818;8.976;2023-07-28T12:20:37;22.00;99.90
15937;DHT22;9163;48.818;8.976;2023-07-28T12:23:06;21.90;99.90
15937;DHT22;9163;48.818;8.976;2023-07-28T12:25:34;21.90;99.90
15937;DHT22;9163;48.818;8.976;2023-07-28T12:28:04;21.70;99.90
15937;DHT22;9163;48.818;8.976;2023-07-28T12:30:32;21.70;99.90
15937;DHT22;9163;48.818;8.976;2023-07-28T12:32:59;21.90;99.90
15937;DHT22;9163;48.818;8.976;2023-07-28T12:35:27;22.10;99.90
15937;DHT22;9163;48.818;8.976;2023-07-28T12:37:57;22.20;99.90
15937;DHT22;9163;48.818;8.976;2023-07-28T12:40:27;22.60;99.90
15937;DHT22;9163;48.818;8.976;2023-07-28T12:42:55;22.90;99.90
15937;DHT22;9163;48.818;8.976;2023-07-28T12:45:24;23.20;99.90
15937;DHT22;9163;48.818;8.976;2023-07-28T12:47:52;23.40;99.90
15937;DHT22;9163;48.818;8.976;2023-07-28T12:50:20;23.40;99.90
15937;DHT22;9163;48.818;8.976;2023-07-28T12:52:47;23.40;99.90
15937;DHT22;9163;48.818;8.976;2023-07-28T12:55:15;23.30;99.90
15937;DHT22;9163;48.818;8.976;2023-07-28T12:57:42;23.30;99.90
15937;DHT22;9163;48.818;8.976;2023-07-28T13:00:11;23.20;99.90
15937;DHT22;9163;48.818;8.976;2023-07-28T13:02:41;23.20;99.90
15937;DHT22;9163;48.818;8.976;2023-07-28T13:05:10;23.00;99.90
15937;DHT22;9163;48.818;8.976;2023-07-28T13:07:38;22.90;99.90
15937;DHT22;9163;48.818;8.976;2023-07-28T13:10:07;22.60;99.90
15937;DHT22;9163;48.818;8.976;2023-07-28T13:12:35;22.60;99.90
15937;DHT22;9163;48.818;8.976;2023-07-28T13:15:04;22.50;99.90
15937;DHT22;9163;48.818;8.976;2023-07-28T13:17:31;22.50;99.90
15937;DHT22;9163;48.818;8.976;2023-07-28T13:20:00;22.30;99.90
15937;DHT22;9163;48.818;8.976;2023-07-28T13:22:27;22.40;99.90
15937;DHT22;9163;48.818;8.976;2023-07-28T13:24:54;22.40;99.90
15937;DHT22;9163;48.818;8.976;2023-07-28T13:27:21;22.30;99.90
15937;DHT22;9163;48.818;8.976;2023-07-28T13:29:49;22.20;99.90
15937;DHT22;9163;48.818;8.976;2023-07-28T13:32:17;22.10;99.90
15937;DHT22;9163;48.818;8.976;2023-07-28T13:34:45;22.00;99.90
15937;DHT22;9163;48.818;8.976;2023-07-28T13:37:14;21.90;99.90
15937;DHT22;9163;48.818;8.976;2023-07-28T13:39:42;21.80;99.90
15937;DHT22;9163;48.818;8.976;2023-07-28T13:42:09;21.50;99.90
15937;DHT22;9163;48.818;8.976;2023-07-28T13:44:38;21.20;99.90
15937;DHT22;9163;48.818;8.976;2023-07-28T13:47:05;21.10;99.90
15937;DHT22;9163;48.818;8.976;2023-07-28T13:49:32;20.80;99.90
15937;DHT22;9163;48.818;8.976;2023-07-28T13:52:01;20.70;99.90
15937;DHT22;9163;48.818;8.976;2023-07-28T13:54:30;20.60;99.90
15937;DHT22;9163;48.818;8.976;2023-07-28T13:56:58;20.20;99.90
15937;DHT22;9163;48.818;8.976;2023-07-28T13:59:25;20.20;99.90
15937;DHT22;9163;48.818;8.976;2023-07-28T14:01:52;20.20;99.90
15937;DHT22;9163;48.818;8.976;2023-07-28T14:04:21;19.90;99.90
15937;DHT22;9163;48.818;8.976;2023-07-28T14:06:48;19.90;99.90
15937;DHT22;9163;48.818;8.976;2023-07-28T14:09:15;19.90;99.90
15937;DHT22;9163;48.818;8.976;2023-07-28T14:11:44;19.90;99.90
15937;DHT22;9163;48.818;8.976;2023-07-28T14:14:11;19.90;99.90
15937;DHT22;9163;48.818;8.976;2023-07-28T14:16:38;19.80;99.90
15937;DHT22;9163;48.818;8.976;2023-07-28T14:19:05;19.60;99.90
15937;DHT22;9163;48.818;8.976;2023-07-28T14:21:33;19.30;99.90
15937;DHT22;9163;48.818;8.976;2023-07-28T14:24:00;19.20;99.90
15937;DHT22;9163;48.818;8.976;2023-07-28T14:26:26;19.30;99.90
15937;DHT22;9163;48.818;8.976;2023-07-28T14:28:55;19.60;99.90
15937;DHT22;9163;48.818;8.976;2023-07-28T14:31:23;19.70;99.90
15937;DHT22;9163;48.818;8.976;2023-07-28T14:33:50;19.70;99.90
15937;DHT22;9163;48.818;8.976;2023-07-28T14:36:17;19.60;99.90
15937;DHT22;9163;48.818;8.976;2023-07-28T14:38:44;19.60;99.90
15937;DHT22;9163;48.818;8.976;2023-07-28T14:41:12;19.60;99.90
15937;DHT22;9163;48.818;8.976;2023-07-28T14:43:39;19.70;99.90
15937;DHT22;9163;48.818;8.976;2023-07-28T14:46:07;19.80;99.90
15937;DHT22;9163;48.818;8.976;2023-07-28T14:48:35;19.80;99.90
15937;DHT22;9163;48.818;8.976;2023-07-28T14:51:02;19.60;99.90
15937;DHT22;9163;48.818;8.976;2023-07-28T14:53:33;19.50;99.90
15937;DHT22;9163;48.818;8.976;2023-07-28T14:56:02;19.60;99.90
15937;DHT22;9163;48.818;8.976;2023-07-28T14:58:30;19.60;99.90
15937;DHT22;9163;48.818;8.976;2023-07-28T15:00:58;19.80;99.90
15937;DHT22;9163;48.818;8.976;2023-07-28T15:03:28;20.10;99.90
15937;DHT22;9163;48.818;8.976;2023-07-28T15:05:56;20.30;99.90
15937;DHT22;9163;48.818;8.976;2023-07-28T15:08:24;20.50;99.90
15937;DHT22;9163;48.818;8.976;2023-07-28T15:10:51;20.40;99.90
15937;DHT22;9163;48.818;8.976;2023-07-28T15:13:19;20.20;99.90
15937;DHT22;9163;48.818;8.976;2023-07-28T15:15:46;20.40;99.90
15937;DHT22;9163;48.818;8.976;2023-07-28T15:18:13;20.40;99.90
15937;DHT22;9163;48.818;8.976;2023-07-28T15:20:43;20.40;99.90
15937;DHT22;9163;48.818;8.976;2023-07-28T15:23:10;20.40;99.90
15937;DHT22;9163;48.818;8.976;2023-07-28T15:25:38;20.30;99.90
15937;DHT22;9163;48.818;8.976;2023-07-28T15:28:09;20.20;99.90
15937;DHT22;9163;48.818;8.976;2023-07-28T15:30:37;20.00;99.90
15937;DHT22;9163;48.818;8.976;2023-07-28T15:33:04;20.00;99.90
15937;DHT22;9163;48.818;8.976;2023-07-28T15:35:32;20.10;99.90
15937;DHT22;9163;48.818;8.976;2023-07-28T15:38:00;20.00;99.90
15937;DHT22;9163;48.818;8.976;2023-07-28T15:40:28;20.00;99.90
15937;DHT22;9163;48.818;8.976;2023-07-28T15:42:55;20.10;99.90
15937;DHT22;9163;48.818;8.976;2023-07-28T15:45:22;20.10;99.90
15937;DHT22;9163;48.818;8.976;2023-07-28T15:47:49;20.10;99.90
15937;DHT22;9163;48.818;8.976;2023-07-28T15:50:16;20.10;99.90